Terminal Aerodrome Forecast
Issued by NWS

Home | Current Version | Previous Version | Text Only | Print | Product List | Glossary On
Versions: 1 2 3 4 5 6 7 8 9 10 11 12 13 14 15 16
000
FTUS45 KABQ 250300 AAA
TAFFMN
TAF AMD
KFMN 250301Z 2503/2524 06006KT P6SM BKN120
      TEMPO 2503/2505 36011G21KT
     FM250900 08005KT P6SM SCT150
     FM251900 26011G18KT P6SM BKN110=

USA.gov is the U.S. government's official web portal to all federal, state and local government web resources and services.